Time;durP1;ratioP1;P1;durP2;ratioP2;P2;SDS_P1;SDS_P2;PMS_P1;PMS_P2;Temp;Humidity;BMP_temperature;BMP_pressure;BME280_temperature;BME280_humidity;BME280_pressure;Samples;Min_cycle;Max_cycle;Signal;HPM_P1;HPM_P2
2022/01/11 00:00:24;;;;;;;7.20;2.90;;;-9.30;99.90;;;;;;2210832;64;20509;-53
2022/01/11 00:02:52;;;;;;;6.47;1.87;;;-9.30;99.90;;;;;;2211015;64;20115;-55
2022/01/11 00:05:41;;;;;;;4.30;1.47;;;-9.20;99.90;;;;;;2214038;64;20088;-56
2022/01/11 00:08:10;;;;;;;4.30;1.80;;;-9.30;99.90;;;;;;2211102;64;20127;-52
2022/01/11 00:10:53;;;;;;;8.70;2.03;;;-9.30;99.90;;;;;;2214142;64;20571;-54
2022/01/11 00:13:37;;;;;;;8.93;2.37;;;-9.30;99.90;;;;;;2213030;64;20500;-52
2022/01/11 00:16:04;;;;;;;6.90;1.67;;;-9.30;99.90;;;;;;2214105;64;20099;-53
2022/01/11 00:18:31;;;;;;;9.83;3.23;;;-9.20;99.90;;;;;;2213902;64;20101;-53
2022/01/11 00:20:58;;;;;;;8.07;2.33;;;-9.30;99.90;;;;;;2213876;64;20484;-54
2022/01/11 00:25:53;;;;;;;10.00;3.10;;;-9.20;99.90;;;;;;2216081;64;20590;-55
2022/01/11 00:28:21;;;;;;;7.23;3.23;;;-9.20;99.90;;;;;;2217825;64;20083;-55
2022/01/11 00:30:50;;;;;;;6.47;2.37;;;-9.20;99.90;;;;;;2214786;64;20522;-54
2022/01/11 00:33:23;;;;;;;9.13;3.63;;;-9.10;99.90;;;;;;2217767;64;20180;-56
2022/01/11 00:35:59;;;;;;;6.78;2.45;;;-9.10;99.90;;;;;;2217815;64;20096;-55
2022/01/11 00:38:33;;;;;;;11.83;3.17;;;-9.10;99.90;;;;;;2211937;64;20256;-56
2022/01/11 00:41:03;;;;;;;7.63;2.80;;;-9.10;99.90;;;;;;2220891;64;20550;-54
2022/01/11 00:43:30;;;;;;;12.67;3.67;;;-9.10;99.90;;;;;;2217889;64;20099;-54
2022/01/11 00:46:00;;;;;;;8.33;2.40;;;-9.10;99.90;;;;;;2217767;64;20558;-54
2022/01/11 00:48:27;;;;;;;11.40;3.47;;;-9.00;99.90;;;;;;2217709;64;20084;-39
2022/01/11 00:50:54;;;;;;;8.60;3.80;;;-9.00;99.90;;;;;;2217763;64;20099;-51
2022/01/11 00:53:22;;;;;;;13.43;3.83;;;-9.00;99.90;;;;;;2214586;64;20092;-59
2022/01/11 00:55:57;;;;;;;11.80;4.50;;;-9.00;99.90;;;;;;2220864;64;20607;-56
2022/01/11 00:58:24;;;;;;;14.00;4.10;;;-9.00;99.90;;;;;;2217611;64;20127;-53
2022/01/11 01:00:51;;;;;;;12.23;3.13;;;-9.00;99.90;;;;;;2217715;64;20088;-56
2022/01/11 01:03:20;;;;;;;10.67;2.67;;;-9.00;99.90;;;;;;2217669;64;20384;-57
2022/01/11 01:05:53;;;;;;;11.60;3.22;;;-9.00;99.90;;;;;;2214669;64;20088;-56
2022/01/11 01:08:21;;;;;;;10.10;3.20;;;-9.00;99.90;;;;;;2217831;64;20088;-54
2022/01/11 01:10:47;;;;;;;9.13;2.70;;;-9.00;99.90;;;;;;2217573;64;20076;-55
2022/01/11 01:13:22;;;;;;;8.10;3.07;;;-8.90;99.90;;;;;;2214259;64;20106;-57
2022/01/11 01:15:51;;;;;;;7.50;2.53;;;-8.90;99.90;;;;;;2217758;64;20169;-59
2022/01/11 01:18:21;;;;;;;6.13;2.13;;;-9.00;99.90;;;;;;2214508;64;20156;-59
2022/01/11 01:20:49;;;;;;;8.73;3.47;;;-8.90;99.90;;;;;;2217617;64;20107;-59
2022/01/11 01:23:16;;;;;;;2.80;1.37;;;-9.00;99.90;;;;;;2220842;64;20108;-60
2022/01/11 01:25:43;;;;;;;13.63;4.60;;;-8.90;99.90;;;;;;2215545;64;20100;-60
2022/01/11 01:28:13;;;;;;;14.67;5.07;;;-8.90;99.90;;;;;;2213637;64;20107;-59
2022/01/11 01:30:40;;;;;;;12.00;4.13;;;-8.90;99.90;;;;;;2213685;64;20549;-59
2022/01/11 01:33:07;;;;;;;10.13;3.10;;;-8.90;99.90;;;;;;2213777;64;20085;-56
2022/01/11 01:35:48;;;;;;;7.17;2.10;;;-8.90;99.90;;;;;;2210425;64;20583;-59
2022/01/11 01:38:23;;;;;;;9.60;2.43;;;-8.90;99.90;;;;;;2213805;64;20084;-59
2022/01/11 01:40:50;;;;;;;16.60;4.37;;;-8.90;99.90;;;;;;2213629;64;20183;-57
2022/01/11 01:43:26;;;;;;;4.33;1.50;;;-8.90;99.90;;;;;;2213867;64;20760;-59
2022/01/11 01:45:53;;;;;;;11.63;3.07;;;-8.80;99.90;;;;;;2213736;64;20108;-59
2022/01/11 01:48:20;;;;;;;15.00;3.83;;;-8.80;99.90;;;;;;2212882;64;20178;-59
2022/01/11 01:50:51;;;;;;;10.33;2.77;;;-8.80;99.90;;;;;;2212977;64;20437;-58
2022/01/11 01:53:18;;;;;;;13.97;3.33;;;-8.80;99.90;;;;;;2209955;64;20174;-60
2022/01/11 01:55:46;;;;;;;16.87;4.83;;;-8.80;99.90;;;;;;2206810;64;20085;-60
2022/01/11 01:58:13;;;;;;;14.67;4.27;;;-8.80;99.90;;;;;;2209764;64;20100;-58
2022/01/11 02:00:50;;;;;;;9.73;3.07;;;-8.80;99.90;;;;;;2213130;64;20077;-58
2022/01/11 02:03:26;;;;;;;10.40;2.00;;;-8.80;99.90;;;;;;2213114;64;20446;-59
2022/01/11 02:05:54;;;;;;;4.40;1.00;;;-8.90;99.90;;;;;;2212995;64;20616;-57
2022/01/11 02:08:21;;;;;;;10.70;1.90;;;-8.90;99.90;;;;;;2212954;64;20097;-59
2022/01/11 02:10:47;;;;;;;8.07;1.80;;;-8.90;99.90;;;;;;2212934;64;20097;-59
2022/01/11 02:13:14;;;;;;;7.13;1.60;;;-8.90;99.90;;;;;;2212806;64;20093;-60
2022/01/11 02:15:41;;;;;;;6.83;1.83;;;-8.80;99.90;;;;;;2213017;64;20097;-59
2022/01/11 02:18:20;;;;;;;8.97;3.00;;;-8.80;99.90;;;;;;2212704;64;20103;-59
2022/01/11 02:20:49;;;;;;;8.57;2.13;;;-8.80;99.90;;;;;;2212846;64;20468;-59
2022/01/11 02:23:17;;;;;;;9.77;3.30;;;-8.80;99.90;;;;;;2209700;64;20100;-60
2022/01/11 02:25:44;;;;;;;6.23;2.10;;;-8.80;99.90;;;;;;2204846;64;20192;-59
2022/01/11 02:28:16;;;;;;;7.70;2.23;;;-8.70;99.90;;;;;;2204874;64;20551;-58
2022/01/11 02:30:43;;;;;;;10.47;3.63;;;-8.70;99.90;;;;;;2204720;64;20101;-59
2022/01/11 02:33:21;;;;;;;12.57;2.43;;;-8.70;99.90;;;;;;2201345;64;20089;-60
2022/01/11 02:35:51;;;;;;;9.30;2.90;;;-8.70;99.90;;;;;;2204558;64;20636;-55
2022/01/11 02:38:17;;;;;;;6.53;2.40;;;-8.80;99.90;;;;;;2204756;64;20544;-59
2022/01/11 02:40:44;;;;;;;3.87;1.57;;;-8.70;99.90;;;;;;2201666;64;20093;-61
2022/01/11 02:43:11;;;;;;;6.37;1.77;;;-8.70;99.90;;;;;;2201596;64;20651;-59
2022/01/11 02:45:38;;;;;;;6.57;2.07;;;-8.70;99.90;;;;;;2201657;64;20073;-59
2022/01/11 02:48:05;;;;;;;2.87;1.23;;;-8.70;99.90;;;;;;2205735;64;20140;-51
2022/01/11 02:50:32;;;;;;;7.60;2.37;;;-8.70;99.90;;;;;;2211816;64;20093;-59
2022/01/11 02:52:58;;;;;;;4.93;2.40;;;-8.70;99.90;;;;;;2208540;64;20101;-59
2022/01/11 02:55:25;;;;;;;13.60;3.17;;;-8.60;99.90;;;;;;2208585;64;20572;-60
2022/01/11 02:57:52;;;;;;;7.50;2.10;;;-8.60;99.90;;;;;;2208540;64;20093;-59
2022/01/11 03:00:20;;;;;;;15.53;2.90;;;-8.60;99.90;;;;;;2208998;64;20128;-59
2022/01/11 03:02:47;;;;;;;8.47;2.07;;;-8.70;99.90;;;;;;2214470;64;20099;-62
2022/01/11 03:05:14;;;;;;;16.03;3.10;;;-8.70;99.90;;;;;;2217359;64;20476;-61
2022/01/11 03:07:41;;;;;;;7.90;3.07;;;-8.70;99.90;;;;;;2217483;64;20080;-59
2022/01/11 03:10:23;;;;;;;7.30;2.47;;;-8.70;99.90;;;;;;2217457;64;20099;-60
2022/01/11 03:12:50;;;;;;;7.10;2.47;;;-8.70;99.90;;;;;;2217274;64;20105;-60
2022/01/11 03:15:16;;;;;;;8.17;2.83;;;-8.70;99.90;;;;;;2217343;64;20583;-62
2022/01/11 03:17:43;;;;;;;4.37;1.80;;;-8.70;99.90;;;;;;2217315;64;20158;-60
2022/01/11 03:20:11;;;;;;;4.33;1.07;;;-8.70;99.90;;;;;;2217264;64;20093;-56
2022/01/11 03:22:38;;;;;;;7.57;3.10;;;-8.70;99.90;;;;;;2217349;64;20097;-59
2022/01/11 03:25:05;;;;;;;4.80;2.07;;;-8.70;99.90;;;;;;2216636;64;20117;-58
2022/01/11 03:27:32;;;;;;;9.97;2.90;;;-8.70;99.90;;;;;;2210369;64;20175;-61
2022/01/11 03:29:59;;;;;;;2.27;0.97;;;-8.80;99.90;;;;;;2213425;64;20112;-56
2022/01/11 03:32:26;;;;;;;11.23;3.67;;;-8.70;99.90;;;;;;2213520;64;20176;-60
2022/01/11 03:34:53;;;;;;;6.10;2.60;;;-8.70;99.90;;;;;;2209086;64;20167;-60
2022/01/11 03:37:20;;;;;;;8.70;2.50;;;-8.70;99.90;;;;;;2213276;64;20100;-57
2022/01/11 03:39:47;;;;;;;8.87;2.23;;;-8.70;99.90;;;;;;2216689;64;20085;-60
2022/01/11 03:42:14;;;;;;;10.43;2.50;;;-8.70;99.90;;;;;;2216637;64;20085;-58
2022/01/11 03:44:41;;;;;;;8.63;2.57;;;-8.70;99.90;;;;;;2213319;64;20111;-60
2022/01/11 03:47:08;;;;;;;7.73;2.40;;;-8.70;99.90;;;;;;2210185;64;20178;-44
2022/01/11 03:49:34;;;;;;;9.20;2.50;;;-8.70;99.90;;;;;;2213302;64;20097;-59
2022/01/11 03:52:01;;;;;;;7.93;2.23;;;-8.70;99.90;;;;;;2210225;64;20092;-57
2022/01/11 03:54:43;;;;;;;9.33;3.23;;;-8.70;99.90;;;;;;2213366;64;20124;-60
2022/01/11 03:57:10;;;;;;;5.83;1.03;;;-8.60;99.90;;;;;;2213371;64;20089;-60
2022/01/11 03:59:37;;;;;;;6.57;2.50;;;-8.60;99.90;;;;;;2210177;64;20142;-60
2022/01/11 04:02:04;;;;;;;6.13;1.90;;;-8.60;99.90;;;;;;2213239;64;20170;-60
2022/01/11 04:04:31;;;;;;;3.10;1.40;;;-8.50;99.90;;;;;;2213495;64;20124;-60
2022/01/11 04:07:00;;;;;;;9.10;3.40;;;-8.50;99.90;;;;;;2213259;64;20097;-59
2022/01/11 04:09:26;;;;;;;9.83;3.47;;;-8.40;99.90;;;;;;2213284;64;20553;-59
2022/01/11 04:11:53;;;;;;;6.83;3.40;;;-8.40;99.90;;;;;;2209827;64;20166;-60
2022/01/11 04:14:21;;;;;;;11.57;5.57;;;-8.40;99.90;;;;;;2213460;64;20469;-57
2022/01/11 04:16:49;;;;;;;13.73;5.40;;;-8.40;99.90;;;;;;2210049;64;20560;-59
2022/01/11 04:19:15;;;;;;;10.50;2.93;;;-8.40;99.90;;;;;;2213208;64;20112;-53
2022/01/11 04:21:42;;;;;;;12.83;4.37;;;-8.30;99.90;;;;;;2216279;64;20088;-60
2022/01/11 04:24:12;;;;;;;14.47;4.83;;;-8.30;99.90;;;;;;2213393;64;20167;-42
2022/01/11 04:26:39;;;;;;;14.17;4.23;;;-8.30;99.90;;;;;;2213253;64;20115;-59
2022/01/11 04:29:06;;;;;;;11.73;3.13;;;-8.30;99.90;;;;;;2210234;64;20085;-57
2022/01/11 04:31:33;;;;;;;9.30;3.80;;;-8.30;99.90;;;;;;2209718;64;20093;-58
2022/01/11 04:34:00;;;;;;;14.97;5.17;;;-8.30;99.90;;;;;;2213115;64;20089;-59
2022/01/11 04:36:27;;;;;;;8.37;2.50;;;-8.30;99.90;;;;;;2213202;64;20096;-60
2022/01/11 04:38:54;;;;;;;13.70;3.50;;;-8.30;99.90;;;;;;2213231;64;20560;-59
2022/01/11 04:41:21;;;;;;;8.97;3.27;;;-8.30;99.90;;;;;;2213214;64;20080;-60
2022/01/11 04:43:48;;;;;;;11.83;3.37;;;-8.20;99.90;;;;;;2213274;64;20101;-57
2022/01/11 04:46:18;;;;;;;9.00;2.30;;;-8.20;99.90;;;;;;2213183;64;20560;-59
2022/01/11 04:48:48;;;;;;;12.93;4.00;;;-8.20;99.90;;;;;;2212960;64;20101;-61
2022/01/11 04:51:15;;;;;;;8.13;3.10;;;-8.30;99.90;;;;;;2212969;64;20128;-56
2022/01/11 04:53:42;;;;;;;10.60;2.50;;;-8.20;99.90;;;;;;2213134;64;20584;-53
2022/01/11 04:56:09;;;;;;;9.20;2.90;;;-8.20;99.90;;;;;;2213235;64;20471;-60
2022/01/11 04:58:36;;;;;;;13.57;4.77;;;-8.20;99.90;;;;;;2212986;64;20182;-58
2022/01/11 05:01:03;;;;;;;6.27;2.00;;;-8.20;99.90;;;;;;2213093;64;20085;-55
2022/01/11 05:03:34;;;;;;;13.97;3.17;;;-8.10;99.90;;;;;;2212996;64;20089;-54
2022/01/11 05:06:01;;;;;;;11.70;4.00;;;-8.10;99.90;;;;;;2213204;64;20545;-54
2022/01/11 05:08:28;;;;;;;10.20;4.43;;;-8.10;99.90;;;;;;2213208;64;20108;-55
2022/01/11 05:10:58;;;;;;;8.27;2.27;;;-8.10;99.90;;;;;;2213048;64;20197;-53
2022/01/11 05:13:25;;;;;;;9.77;2.63;;;-8.10;99.90;;;;;;2212787;64;20089;-55
2022/01/11 05:15:53;;;;;;;10.57;3.73;;;-8.10;99.90;;;;;;2216368;64;20081;-55
2022/01/11 05:18:23;;;;;;;7.70;2.17;;;-8.00;99.90;;;;;;2213109;64;20093;-56
2022/01/11 05:21:04;;;;;;;6.13;2.40;;;-8.00;99.90;;;;;;2213139;64;20085;-58
2022/01/11 05:23:34;;;;;;;7.63;2.43;;;-8.00;99.90;;;;;;2216019;64;20646;-53
2022/01/11 05:26:03;;;;;;;7.77;2.77;;;-8.00;99.90;;;;;;2213088;64;20089;-57
2022/01/11 05:28:31;;;;;;;8.73;3.17;;;-8.00;99.90;;;;;;2212941;64;20089;-54
2022/01/11 05:30:58;;;;;;;9.73;2.63;;;-8.00;99.90;;;;;;2212890;64;20085;-52
2022/01/11 05:33:25;;;;;;;9.07;3.10;;;-8.00;99.90;;;;;;2209703;64;20077;-54
2022/01/11 05:35:52;;;;;;;7.90;1.93;;;-8.00;99.90;;;;;;2213010;64;20151;-51
2022/01/11 05:38:29;;;;;;;4.10;1.67;;;-8.00;99.90;;;;;;2212828;64;20214;-58
2022/01/11 05:40:56;;;;;;;10.87;3.30;;;-7.90;99.90;;;;;;2213056;64;20108;-54
2022/01/11 05:43:31;;;;;;;13.83;2.40;;;-7.80;99.90;;;;;;2212776;64;20111;-59
2022/01/11 05:45:58;;;;;;;10.05;2.58;;;-7.80;99.90;;;;;;2213064;64;20089;-55
2022/01/11 05:48:26;;;;;;;5.60;1.73;;;-7.80;99.90;;;;;;2214258;64;20093;-59
2022/01/11 05:50:54;;;;;;;4.77;1.83;;;-7.80;99.90;;;;;;2216821;64;20093;-54
2022/01/11 05:53:21;;;;;;;8.77;2.30;;;-7.70;99.90;;;;;;2216717;64;20178;-55
2022/01/11 05:55:51;;;;;;;7.70;2.33;;;-7.70;99.90;;;;;;2216908;64;20148;-54
2022/01/11 05:58:17;;;;;;;6.73;2.20;;;-7.70;99.90;;;;;;2216711;64;20076;-54
2022/01/11 06:00:46;;;;;;;6.30;1.97;;;-7.70;99.90;;;;;;2216704;64;20112;-47
2022/01/11 06:03:19;;;;;;;7.33;2.00;;;-7.60;99.90;;;;;;2216707;64;20173;-52
2022/01/11 06:05:49;;;;;;;5.80;2.17;;;-7.50;99.90;;;;;;2212766;64;20092;-51
2022/01/11 06:08:17;;;;;;;11.87;3.00;;;-7.60;99.90;;;;;;2216808;64;20182;-46
2022/01/11 06:10:48;;;;;;;7.50;2.73;;;-7.50;99.90;;;;;;2216654;64;20096;-56
2022/01/11 06:13:15;;;;;;;8.13;2.67;;;-7.50;99.90;;;;;;2216817;64;20565;-52
2022/01/11 06:15:42;;;;;;;13.97;2.40;;;-7.50;99.90;;;;;;2217014;64;20425;-56
2022/01/11 06:18:09;;;;;;;9.60;2.00;;;-7.50;99.90;;;;;;2216710;64;20092;-54
2022/01/11 06:20:37;;;;;;;8.07;2.10;;;-7.40;99.90;;;;;;2216491;64;21168;-57
2022/01/11 06:23:04;;;;;;;6.80;2.07;;;-7.40;99.90;;;;;;2212734;64;20518;-52
2022/01/11 06:25:31;;;;;;;5.43;1.80;;;-7.30;99.90;;;;;;2217289;64;20096;-54
2022/01/11 06:27:58;;;;;;;5.87;1.40;;;-7.30;99.90;;;;;;2217345;64;20088;-58
2022/01/11 06:30:24;;;;;;;4.80;1.67;;;-7.20;99.90;;;;;;2217077;64;20100;-58
2022/01/11 06:32:55;;;;;;;3.37;1.03;;;-7.20;99.90;;;;;;2217362;64;20100;-58
2022/01/11 06:35:23;;;;;;;5.70;1.33;;;-7.10;99.90;;;;;;2220568;64;20525;-59
2022/01/11 06:37:52;;;;;;;5.83;1.10;;;-7.10;99.90;;;;;;2217560;64;20092;-53
2022/01/11 06:40:20;;;;;;;5.30;1.63;;;-7.10;99.90;;;;;;2217421;64;20076;-51
2022/01/11 06:42:47;;;;;;;7.07;1.70;;;-7.00;99.90;;;;;;2217335;64;20104;-52
2022/01/11 06:45:16;;;;;;;7.67;2.17;;;-6.90;99.90;;;;;;2217234;64;20084;-51
2022/01/11 06:47:42;;;;;;;5.37;1.90;;;-6.90;99.90;;;;;;2217120;64;20100;-55
2022/01/11 06:50:10;;;;;;;6.27;2.30;;;-6.90;99.90;;;;;;2217189;64;20111;-53
2022/01/11 06:52:39;;;;;;;8.23;2.30;;;-6.80;99.90;;;;;;2217285;64;20112;-59
2022/01/11 06:55:07;;;;;;;6.93;1.57;;;-6.80;99.90;;;;;;2217299;64;20092;-57
2022/01/11 06:57:33;;;;;;;10.17;3.73;;;-6.60;99.90;;;;;;2217200;64;20092;-55
2022/01/11 07:00:00;;;;;;;4.87;1.57;;;-6.50;99.90;;;;;;2217291;64;20110;-59
2022/01/11 07:02:28;;;;;;;6.83;1.33;;;-6.40;99.90;;;;;;2217178;64;20092;-59
2022/01/11 07:04:58;;;;;;;5.23;1.43;;;-6.40;99.90;;;;;;2217070;64;20138;-57
2022/01/11 07:07:25;;;;;;;7.23;1.57;;;-6.40;99.90;;;;;;2217081;64;20088;-60
2022/01/11 07:09:54;;;;;;;6.83;2.40;;;-6.30;99.90;;;;;;2217178;64;20084;-60
2022/01/11 07:12:21;;;;;;;6.30;1.93;;;-6.30;99.90;;;;;;2217182;64;20088;-52
2022/01/11 07:14:48;;;;;;;8.67;1.67;;;-6.20;99.90;;;;;;2217163;64;20092;-55
2022/01/11 07:17:15;;;;;;;3.37;1.10;;;-5.90;99.90;;;;;;2217275;64;20582;-55
2022/01/11 07:19:42;;;;;;;6.63;2.03;;;-6.00;99.90;;;;;;2217359;64;20092;-55
2022/01/11 07:22:09;;;;;;;5.93;2.23;;;-6.10;99.90;;;;;;2217317;64;20092;-57
2022/01/11 07:24:36;;;;;;;7.40;2.00;;;-6.10;99.90;;;;;;2217068;64;20086;-55
2022/01/11 07:27:05;;;;;;;6.63;3.00;;;-6.00;99.90;;;;;;2207606;64;20145;-57
2022/01/11 07:29:32;;;;;;;6.63;2.63;;;-6.00;99.90;;;;;;2201297;64;20093;-58
2022/01/11 07:31:59;;;;;;;7.67;2.17;;;-6.00;99.90;;;;;;2207726;64;20541;-58
2022/01/11 07:34:26;;;;;;;9.93;2.50;;;-5.90;99.90;;;;;;2204706;64;20093;-54
2022/01/11 07:36:53;;;;;;;6.03;2.20;;;-6.10;99.90;;;;;;2204399;64;20565;-57
2022/01/11 07:39:20;;;;;;;5.33;2.37;;;-6.10;99.90;;;;;;2207858;64;20093;-54
2022/01/11 07:41:47;;;;;;;5.30;2.53;;;-6.10;99.90;;;;;;2207883;64;20124;-56
2022/01/11 07:44:14;;;;;;;6.33;1.77;;;-6.20;99.90;;;;;;2207866;64;20477;-54
2022/01/11 07:46:42;;;;;;;6.03;1.60;;;-6.00;99.90;;;;;;2208153;64;20589;-57
2022/01/11 07:49:09;;;;;;;7.20;2.00;;;-5.70;99.90;;;;;;2208569;64;20173;-56
2022/01/11 07:51:36;;;;;;;6.53;2.93;;;-5.70;99.90;;;;;;2205390;64;20092;-56
2022/01/11 07:54:03;;;;;;;6.33;1.60;;;-5.60;99.90;;;;;;2208318;64;20101;-57
2022/01/11 07:56:30;;;;;;;8.83;1.90;;;-5.60;99.90;;;;;;2208349;64;20112;-54
2022/01/11 07:58:57;;;;;;;3.63;1.40;;;-5.60;99.90;;;;;;2205230;64;20147;-58
2022/01/11 08:01:24;;;;;;;4.63;1.60;;;-5.50;99.90;;;;;;2205182;64;20090;-58
2022/01/11 08:03:54;;;;;;;5.67;1.90;;;-5.50;99.90;;;;;;2210290;64;20088;-59
2022/01/11 08:06:21;;;;;;;6.20;1.67;;;-5.30;99.90;;;;;;2213902;64;20527;-57
2022/01/11 08:08:48;;;;;;;9.93;2.33;;;-5.40;99.90;;;;;;2213960;64;20092;-60
2022/01/11 08:11:15;;;;;;;3.10;1.40;;;-5.40;99.90;;;;;;2213824;64;20095;-59
2022/01/11 08:13:45;;;;;;;7.57;1.00;;;-5.50;99.90;;;;;;2213897;64;20088;-59
2022/01/11 08:16:12;;;;;;;7.03;1.77;;;-5.70;99.90;;;;;;2213857;64;20092;-57
2022/01/11 08:18:38;;;;;;;5.57;2.70;;;-5.60;99.90;;;;;;2213996;64;20195;-59
2022/01/11 08:21:06;;;;;;;7.13;1.53;;;-5.60;99.90;;;;;;2213753;64;20089;-59
2022/01/11 08:23:33;;;;;;;6.80;2.27;;;-5.60;99.90;;;;;;2213840;64;20092;-59
2022/01/11 08:26:00;;;;;;;4.83;2.00;;;-5.70;99.90;;;;;;2215901;64;20084;-57
2022/01/11 08:28:27;;;;;;;5.87;1.40;;;-5.70;99.90;;;;;;2217538;64;20184;-52
2022/01/11 08:30:57;;;;;;;5.00;1.90;;;-5.80;99.90;;;;;;2217524;64;20647;-53
2022/01/11 08:33:24;;;;;;;5.23;1.83;;;-5.70;99.90;;;;;;2217561;64;20114;-42
2022/01/11 08:35:54;;;;;;;7.53;1.97;;;-5.50;99.90;;;;;;2217885;64;20170;-58
2022/01/11 08:38:21;;;;;;;6.70;1.37;;;-5.40;99.90;;;;;;2217740;64;20084;-57
2022/01/11 08:40:48;;;;;;;8.53;2.03;;;-5.40;99.90;;;;;;2217539;64;20096;-57
2022/01/11 08:43:15;;;;;;;4.57;2.33;;;-5.40;99.90;;;;;;2217552;64;20096;-57
2022/01/11 08:45:42;;;;;;;8.43;2.53;;;-5.30;99.90;;;;;;2217763;64;20433;-59
2022/01/11 08:48:09;;;;;;;4.90;1.53;;;-5.30;99.90;;;;;;2217482;64;20100;-51
2022/01/11 08:50:36;;;;;;;8.27;2.37;;;-5.10;99.90;;;;;;2220998;64;20169;-57
2022/01/11 08:53:03;;;;;;;4.13;1.83;;;-5.10;99.90;;;;;;2217677;64;20096;-59
2022/01/11 08:55:30;;;;;;;8.77;1.80;;;-5.10;99.90;;;;;;2217872;64;20084;-56
2022/01/11 08:57:57;;;;;;;6.93;2.67;;;-5.40;99.90;;;;;;2217558;64;20104;-56
2022/01/11 09:00:24;;;;;;;5.30;2.60;;;-5.50;99.90;;;;;;2217815;64;20088;-54
2022/01/11 09:02:51;;;;;;;4.40;1.93;;;-5.50;99.90;;;;;;2217624;64;20099;-56
2022/01/11 09:05:18;;;;;;;6.43;2.20;;;-5.40;99.90;;;;;;2214307;64;20107;-55
2022/01/11 09:07:49;;;;;;;7.37;2.30;;;-5.30;99.90;;;;;;2217517;64;20561;-60
2022/01/11 09:10:16;;;;;;;5.93;2.37;;;-5.20;99.90;;;;;;2217688;64;20092;-57
2022/01/11 09:12:43;;;;;;;5.93;2.27;;;-5.00;99.90;;;;;;2217525;64;20084;-57
2022/01/11 09:15:10;;;;;;;7.50;1.83;;;-5.30;99.90;;;;;;2217625;64;20095;-56
2022/01/11 09:17:37;;;;;;;5.73;1.77;;;-5.20;99.90;;;;;;2217598;64;20491;-55
2022/01/11 09:20:06;;;;;;;3.97;1.60;;;-5.20;99.90;;;;;;2208610;64;20097;-56
2022/01/11 09:22:33;;;;;;;7.63;2.03;;;-5.30;99.90;;;;;;2208810;64;20175;-56
2022/01/11 09:25:00;;;;;;;8.27;2.53;;;-5.30;99.90;;;;;;2211062;64;20113;-58
2022/01/11 09:27:28;;;;;;;8.07;2.20;;;-5.30;99.90;;;;;;2205188;64;20093;-40
2022/01/11 09:29:55;;;;;;;5.10;1.90;;;-5.30;99.90;;;;;;2201692;64;20082;-57
2022/01/11 09:32:24;;;;;;;5.63;2.20;;;-5.30;99.90;;;;;;2197193;65;20555;-56
2022/01/11 09:34:52;;;;;;;6.40;2.73;;;-5.20;99.90;;;;;;2200313;65;20093;-58
2022/01/11 09:37:19;;;;;;;5.50;2.30;;;-5.20;99.90;;;;;;2197273;65;20090;-57
2022/01/11 09:39:48;;;;;;;7.23;1.90;;;-5.20;99.90;;;;;;2200509;65;20566;-61
2022/01/11 09:42:14;;;;;;;10.17;3.43;;;-5.30;99.90;;;;;;2197247;65;20094;-64
2022/01/11 09:44:41;;;;;;;10.30;2.57;;;-5.20;99.90;;;;;;2197262;65;20103;-54
2022/01/11 09:47:12;;;;;;;5.87;2.33;;;-5.30;99.90;;;;;;2197197;65;20192;-60
2022/01/11 09:49:40;;;;;;;8.30;2.37;;;-5.50;99.90;;;;;;2197147;65;20240;-56
2022/01/11 09:52:08;;;;;;;5.27;2.60;;;-5.60;99.90;;;;;;2207006;64;20628;-55
2022/01/11 09:54:42;;;;;;;6.67;2.07;;;-5.50;99.90;;;;;;2201264;64;20176;-61
2022/01/11 09:57:10;;;;;;;6.93;2.17;;;-5.40;99.90;;;;;;2204957;64;20121;-60
2022/01/11 09:59:44;;;;;;;10.57;3.37;;;-5.40;99.90;;;;;;2208005;64;20194;-60
2022/01/11 10:02:13;;;;;;;4.57;2.10;;;-5.40;99.90;;;;;;2208160;64;20100;-62
2022/01/11 10:04:39;;;;;;;9.23;2.93;;;-5.40;99.90;;;;;;2207900;64;20086;-63
2022/01/11 10:07:08;;;;;;;6.33;2.13;;;-5.40;99.90;;;;;;2208052;64;20461;-60
2022/01/11 10:09:52;;;;;;;7.07;2.47;;;-5.50;99.90;;;;;;2210928;64;20096;-62
2022/01/11 10:12:22;;;;;;;6.13;1.88;;;-5.40;99.90;;;;;;2213643;64;20178;-63
2022/01/11 10:14:56;;;;;;;5.03;1.73;;;-5.40;99.90;;;;;;2213647;64;20085;-63
2022/01/11 10:17:30;;;;;;;9.97;2.40;;;-5.40;99.90;;;;;;2213472;64;20093;-62
2022/01/11 10:20:09;;;;;;;5.28;1.73;;;-5.40;99.90;;;;;;2213583;64;20099;-62
2022/01/11 10:22:48;;;;;;;6.33;1.80;;;-5.50;99.90;;;;;;2213535;64;20101;-62
2022/01/11 10:25:18;;;;;;;7.53;1.63;;;-5.50;99.90;;;;;;2214592;64;20106;-61
2022/01/11 10:27:51;;;;;;;5.63;1.60;;;-5.60;99.90;;;;;;2217334;64;20553;-61
2022/01/11 10:30:20;;;;;;;5.50;1.40;;;-5.70;99.90;;;;;;2217343;64;20084;-62
2022/01/11 10:32:48;;;;;;;5.47;1.37;;;-5.70;99.90;;;;;;2216985;64;20088;-62
2022/01/11 10:35:26;;;;;;;4.07;1.77;;;-5.80;99.90;;;;;;2217447;64;20154;-61
2022/01/11 10:37:54;;;;;;;7.40;1.53;;;-5.60;99.90;;;;;;2216987;64;20088;-63
2022/01/11 10:40:26;;;;;;;6.23;1.63;;;-5.50;99.90;;;;;;2217443;64;20669;-62
2022/01/11 10:42:58;;;;;;;5.53;1.67;;;-5.60;99.90;;;;;;2214166;64;20096;-59
2022/01/11 10:45:38;;;;;;;8.60;3.20;;;-5.50;99.90;;;;;;2209964;64;20088;-62
2022/01/11 10:48:10;;;;;;;5.07;1.87;;;-5.60;99.90;;;;;;2217139;64;20257;-62
2022/01/11 10:50:44;;;;;;;5.87;1.33;;;-5.70;99.90;;;;;;2217107;64;20103;-60
2022/01/11 10:53:19;;;;;;;2.97;1.50;;;-5.60;99.90;;;;;;2217255;64;20111;-58
2022/01/11 10:55:57;;;;;;;8.27;1.97;;;-5.50;99.90;;;;;;2217185;64;20088;-62
2022/01/11 10:58:24;;;;;;;6.53;1.53;;;-5.50;99.90;;;;;;2217402;64;20080;-62
2022/01/11 11:00:52;;;;;;;4.77;1.30;;;-5.40;99.90;;;;;;2217170;64;20602;-62
2022/01/11 11:03:23;;;;;;;6.73;2.13;;;-5.50;99.90;;;;;;2217225;64;20080;-62
2022/01/11 11:05:52;;;;;;;4.13;1.90;;;-5.40;99.90;;;;;;2217412;64;20103;-60
2022/01/11 11:08:26;;;;;;;6.30;2.40;;;-5.30;99.90;;;;;;2214000;64;20551;-59
2022/01/11 11:10:56;;;;;;;3.42;1.40;;;-5.30;99.90;;;;;;2217264;64;20564;-66
2022/01/11 11:13:28;;;;;;;5.17;1.70;;;-5.30;99.90;;;;;;2217221;64;20112;-61
2022/01/11 11:16:00;;;;;;;3.53;1.27;;;-5.20;99.90;;;;;;2217127;64;20170;-59
2022/01/11 11:18:29;;;;;;;4.70;1.40;;;-5.10;99.90;;;;;;2217106;64;20163;-62
2022/01/11 11:20:56;;;;;;;5.57;1.37;;;-5.10;99.90;;;;;;2217339;64;20095;-62
2022/01/11 11:23:23;;;;;;;4.83;2.00;;;-5.10;99.90;;;;;;2217803;64;20103;-62
2022/01/11 11:25:50;;;;;;;9.77;5.87;;;-5.00;99.90;;;;;;2215846;64;20095;-61
2022/01/11 11:28:17;;;;;;;5.40;1.50;;;-5.00;99.90;;;;;;2217296;64;20560;-62
2022/01/11 11:30:48;;;;;;;2.47;1.03;;;-5.10;99.90;;;;;;2213940;64;20092;-61
2022/01/11 11:33:16;;;;;;;5.80;2.10;;;-5.20;99.90;;;;;;2213882;64;20096;-55
2022/01/11 11:35:43;;;;;;;8.60;2.90;;;-5.10;99.90;;;;;;2207863;64;20099;-57
2022/01/11 11:38:10;;;;;;;8.07;2.33;;;-5.10;99.90;;;;;;2214085;64;20097;-52
2022/01/11 11:40:37;;;;;;;8.20;1.83;;;-5.10;99.90;;;;;;2213884;64;20088;-57
2022/01/11 11:43:04;;;;;;;5.83;2.80;;;-5.10;99.90;;;;;;2211091;64;20096;-57
2022/01/11 11:45:33;;;;;;;4.77;2.43;;;-5.10;99.90;;;;;;2214017;64;20107;-55
2022/01/11 11:48:04;;;;;;;5.03;2.10;;;-5.10;99.90;;;;;;2213884;64;20560;-57
2022/01/11 11:50:59;;;;;;;5.20;2.50;;;-5.10;99.90;;;;;;2214278;64;20085;-54
2022/01/11 11:53:34;;;;;;;11.87;3.00;;;-5.10;99.90;;;;;;2213912;64;20096;-49
2022/01/11 11:56:18;;;;;;;7.50;1.95;;;-5.10;99.90;;;;;;2213961;64;20430;-53
2022/01/11 11:59:00;;;;;;;3.47;1.88;;;-5.00;99.90;;;;;;2214017;64;20093;-53
2022/01/11 12:01:46;;;;;;;4.47;1.77;;;-5.00;99.90;;;;;;2213890;64;20093;-53
2022/01/11 12:04:15;;;;;;;5.97;2.10;;;-5.00;99.90;;;;;;2214047;64;20081;-52
2022/01/11 12:06:43;;;;;;;5.33;2.63;;;-5.00;99.90;;;;;;2213848;64;20561;-54
2022/01/11 12:09:15;;;;;;;4.63;2.37;;;-5.10;99.90;;;;;;2214073;64;20119;-54
2022/01/11 12:11:45;;;;;;;5.47;2.03;;;-5.20;99.90;;;;;;2213805;64;20107;-55
2022/01/11 12:14:31;;;;;;;8.00;2.10;;;-5.10;99.90;;;;;;2213872;64;20104;-55
2022/01/11 12:17:17;;;;;;;9.50;3.43;;;-5.10;99.90;;;;;;2213702;64;20089;-48
2022/01/11 12:19:51;;;;;;;4.70;1.63;;;-5.10;99.90;;;;;;2214090;64;20596;-56
2022/01/11 12:22:28;;;;;;;5.33;2.30;;;-5.20;99.90;;;;;;2213970;64;20085;-54
2022/01/11 12:24:57;;;;;;;4.30;1.93;;;-5.30;99.90;;;;;;2214382;64;20514;-51
2022/01/11 12:27:24;;;;;;;6.80;3.03;;;-5.40;99.90;;;;;;2217822;64;20092;-54
2022/01/11 12:29:56;;;;;;;5.63;2.27;;;-5.30;99.90;;;;;;2217653;64;20164;-52
2022/01/11 12:32:25;;;;;;;6.10;2.97;;;-5.30;99.90;;;;;;2211336;64;20111;-53
2022/01/11 12:34:57;;;;;;;7.83;2.53;;;-5.40;99.90;;;;;;2208039;64;20097;-54
2022/01/11 12:37:27;;;;;;;9.43;3.13;;;-5.40;99.90;;;;;;2211617;64;20086;-53
2022/01/11 12:40:12;;;;;;;8.43;3.40;;;-5.50;99.90;;;;;;2211210;64;20488;-56
2022/01/11 12:42:57;;;;;;;7.63;2.33;;;-5.40;99.90;;;;;;2205070;64;20102;-56
2022/01/11 12:45:56;;;;;;;7.50;2.75;;;-5.50;99.90;;;;;;2205178;64;20111;-53
2022/01/11 12:48:45;;;;;;;5.33;1.83;;;-5.50;99.90;;;;;;2207330;64;20640;-54
2022/01/11 12:51:37;;;;;;;5.13;1.80;;;-5.50;99.90;;;;;;2204333;64;20090;-53
2022/01/11 12:54:15;;;;;;;6.73;3.17;;;-5.50;99.90;;;;;;2207254;64;20110;-47
2022/01/11 12:56:46;;;;;;;5.33;2.10;;;-5.50;99.90;;;;;;2204361;64;20596;-52
2022/01/11 12:59:17;;;;;;;8.70;3.93;;;-5.50;99.90;;;;;;2204197;64;20113;-55